• Join FlightAware (Why Join?)
  • Login
  • US Flag 
09:18AM EDT


 

Airport Tracker/Info


-or-


 

Live Flight TrackerFlight Track Log ✈ UAL1169 ✈ 14-Jul-2013 ✈ KIAH - KLAX

Flight Track Log - Related Links

Times and Time Zones

All times are in EDT time to prevent confusion due to time zone crossing. See the UAL1169 flight status page for this flight to view local times or setup timezone preferences in your user account.

Time Position Orientation Groundspeed Altitude Reporting Facility
EDT Latitude Longitude Course Direction KTS MPH feet Rate Location/Type
10:30AM 29.9531 -95.3422 276° West 209 241 900  Level Houston Center
10:31AM 29.9214 -95.3606 207° Southwest 214 246 1,900 1,620 Climbing Houston Center
10:32AM 29.9278 -95.4042 280° West 232 267 3,300 2,100 Climbing Houston Center
10:33AM 30.0284 -95.7508 277° West  Level FlightAware Approximate
10:33AM 29.9461 -95.4836 285° West 253 291 5,600  Level Houston Center
10:34AM 30.0410 -95.8909 276° West  Level FlightAware Approximate
10:34AM 29.9656 -95.5711 284° West 274 315 8,400  Level Houston Center
10:35AM 30.0597 -96.0292 291° West  Level FlightAware Approximate
10:35AM 29.9892 -95.6803 284° West 289 333 10,600  Level Houston Center
10:36AM 30.0774 -96.1680 276° West  Level FlightAware Approximate
10:36AM 30.0131 -95.7914 284° West 353 406 11,900  Level Houston Center
10:37AM 30.0381 -95.9094 284° West 378 435 14,200 2,280 Climbing Houston Center
10:38AM 30.0656 -96.0422 283° West 384 442 16,700 2,220 Climbing Houston Center
10:39AM 30.0872 -96.1661 281° West 393 452 18,800 1,620 Climbing Houston Center
10:40AM 30.1056 -96.2925 280° West 402 463 20,100 1,500 Climbing Houston Center
10:41AM 30.1281 -96.4419 280° West 422 486 21,900 1,380 Climbing Houston Center
10:42AM 30.1489 -96.5806 280° West 431 496 23,000 1,500 Climbing Houston Center
10:43AM 30.1711 -96.7208 280° West 440 506 25,000 1,740 Climbing Houston Center
10:44AM 30.1908 -96.8619 279° West 440 506 26,700 1,500 Climbing Houston Center
10:45AM 30.2131 -97.0019 280° West 437 503 28,100 960 Climbing Houston Center
10:46AM 30.2339 -97.1469 279° West 448 516 28,800 720 Climbing Houston Center
10:47AM 30.2567 -97.2981 280° West 466 536 29,600 1,020 Climbing Houston Center
10:48AM 30.2781 -97.4503 279° West 473 544 31,000 1,080 Climbing Houston Center
10:49AM 30.2994 -97.6019 279° West 471 542 31,900 900 Climbing Houston Center
10:50AM 30.3222 -97.7572 280° West 479 551 32,900 960 Climbing Houston Center
10:51AM 30.3472 -97.9356 279° West 478 550 34,000 600 Climbing Houston Center
10:52AM 30.3692 -98.0917 279° West 480 552 34,200 540 Climbing Houston Center
10:53AM 30.3922 -98.2453 280° West 481 554 35,200 840 Climbing Houston Center
10:54AM 30.4297 -98.3914 287° West 471 542 36,000 360 Climbing Houston Center
10:55AM 30.4686 -98.5356 287° West 465 535 36,000  Level Houston Center
10:57AM 30.5083 -98.6792 288° West 464 534 36,000  Level Houston Center
10:58AM 30.5478 -98.8236 288° West 464 534 36,000  Level Houston Center
10:59AM 30.5889 -98.9692 288° West 468 539 36,000  Level Houston Center
11:00AM 30.6281 -99.1131 288° West 464 534 36,000  Level Houston Center
11:01AM 30.6664 -99.2553 287° West 463 533 36,000  Level Houston Center
11:02AM 30.7125 -99.4256 288° West 463 533 36,000  Level Houston Center
11:03AM 30.7492 -99.5672 287° West 462 532 36,000  Level Houston Center
11:04AM 30.7872 -99.7100 287° West 464 534 36,000  Level Houston Center
11:05AM 30.8244 -99.8528 287° West 466 536 36,000  Level Houston Center
11:06AM 30.8611 -99.9944 287° West 461 531 36,000  Level Houston Center
11:07AM 30.8986 -100.1372 287° West 463 533 36,000  Level Houston Center
11:08AM 30.9425 -100.3075 287° West 460 529 36,000  Level Houston Center
11:09AM 30.9794 -100.4517 287° West 465 535 36,000  Level Houston Center
11:10AM 31.0156 -100.5950 286° West 464 534 36,000  Level Houston Center
11:11AM 31.0517 -100.7406 286° West 469 540 36,000  Level Houston Center
11:12AM 31.0883 -100.8847 287° West 466 536 36,000  Level Houston Center
11:13AM 31.1311 -101.0583 286° West 467 537 36,000  Level Houston Center
11:14AM 31.1681 -101.2008 287° West 462 532 36,000  Level Houston Center
11:15AM 31.2036 -101.3456 286° West 463 533 36,000  Level Houston Center
11:16AM 31.2394 -101.4903 286° West 465 535 36,000  Level Houston Center
11:17AM 31.2747 -101.6344 286° West 464 534 36,000  Level Houston Center
11:18AM 31.3094 -101.7794 286° West 464 534 36,000  Level Houston Center
11:19AM 31.3517 -101.9539 286° West 464 534 36,000  Level Houston Center
11:20AM 31.3844 -102.1008 285° West 466 536 36,000  Level Houston Center
11:21AM 31.4208 -102.2458 286° West 466 536 36,000  Level Houston Center
11:22AM 31.4572 -102.3906 286° West 466 536 36,000  Level Houston Center
11:23AM 31.4911 -102.5383 285° West 468 539 36,000  Level Houston Center
11:24AM 31.5256 -102.6853 285° West 468 539 36,000  Level Houston Center
11:25AM 31.5675 -102.8611 286° West 468 539 36,000  Level Houston Center
11:26AM 31.6011 -103.0106 285° West 471 542 36,000  Level Houston Center
11:27AM 31.6369 -103.1572 286° West 471 542 36,000  Level Houston Center
11:28AM 31.6700 -103.3056 285° West 470 541 36,000  Level Houston Center
11:30AM 31.7017 -103.4539 284° West 469 540 36,000  Level Houston Center
11:31AM 31.7372 -103.6019 286° West 471 542 36,000  Level Houston Center
11:32AM 31.7742 -103.7653 285° West 468 539 36,000  Level Albuquerque Center
11:33AM 31.8075 -103.9111 285° West 465 535 36,000  Level Albuquerque Center
11:34AM 31.8458 -104.0828 285° West 459 528 36,000  Level Albuquerque Center
11:35AM 31.8783 -104.2267 285° West 458 527 36,000  Level Albuquerque Center
11:36AM 31.9089 -104.3714 284° West 458 527 36,000  Level Albuquerque Center
11:37AM 31.9419 -104.5172 285° West 461 531 36,000  Level Albuquerque Center
11:38AM 31.9722 -104.6614 284° West 459 528 36,000  Level Albuquerque Center
11:39AM 32.0044 -104.8067 285° West 459 528 36,000  Level Albuquerque Center
11:40AM 32.0422 -104.9833 284° West 464 534 36,000  Level Albuquerque Center
11:41AM 32.0739 -105.1306 284° West 465 535 36,000  Level Albuquerque Center
11:42AM 32.1050 -105.2792 284° West 468 539 36,000  Level Albuquerque Center
11:43AM 32.1361 -105.4247 284° West 462 532 36,000  Level Albuquerque Center
11:44AM 32.1667 -105.5736 284° West 469 540 36,000  Level Albuquerque Center
11:45AM 32.1978 -105.7197 284° West 463 533 36,000  Level Albuquerque Center
11:46AM 32.2344 -105.8972 284° West 465 535 36,000  Level Albuquerque Center
11:47AM 32.2642 -106.0433 284° West 461 531 36,000  Level Albuquerque Center
11:48AM 32.2944 -106.1911 284° West 464 534 36,000 -300 Level Albuquerque Center
11:49AM 32.3244 -106.3386 284° West 468 539 35,500 -1,020 Descending Albuquerque Center
11:50AM 32.3556 -106.4911 284° West 475 547 34,000 -780 Descending Albuquerque Center
11:51AM 32.3861 -106.6431 283° West 477 549 34,000  Level Albuquerque Center
11:52AM 32.4233 -106.8289 283° West 485 558 34,000  Level Albuquerque Center
11:53AM 32.4536 -106.9897 283° West 496 571 34,000  Level Albuquerque Center
11:54AM 32.4836 -107.1483 283° West 497 572 34,000  Level Albuquerque Center
11:55AM 32.5150 -107.3058 283° West 494 568 34,000  Level Albuquerque Center
11:56AM 32.5464 -107.4658 283° West 498 573 34,000  Level Albuquerque Center
11:57AM 32.5792 -107.6406 283° West 496 571 34,000  Level Albuquerque Center
11:58AM 32.6094 -107.8000 283° West 496 571 34,000  Level Albuquerque Center
11:59AM 32.6392 -107.9589 283° West 497 572 34,000 -60 Level Albuquerque Center
12:01PM 32.6692 -108.1200 283° West 498 573 33,900 -660 Descending Albuquerque Center
12:02PM 32.6997 -108.2789 283° West 496 571 32,700 -960 Descending Albuquerque Center
12:03PM 32.7353 -108.4728 282° West 500 575 32,000 -360 Descending Albuquerque Center
12:04PM 32.7647 -108.6333 282° West 501 577 32,000  Level Albuquerque Center
12:05PM 32.7939 -108.7981 282° West 511 588 32,000  Level Albuquerque Center
12:06PM 32.8267 -108.9597 284° West 508 585 32,000  Level Albuquerque Center
12:07PM 32.8586 -109.1231 283° West 508 585 32,000  Level Albuquerque Center
12:08PM 32.8864 -109.2842 282° West 502 578 32,000  Level Albuquerque Center
12:09PM 32.9139 -109.4411 282° West 491 565 32,000  Level Albuquerque Center
12:10PM 32.9475 -109.6294 282° West 487 560 32,000  Level Albuquerque Center
12:11PM 32.9758 -109.7869 282° West 488 562 32,000  Level Albuquerque Center
12:12PM 33.0011 -109.9447 281° West 487 560 32,000  Level Albuquerque Center
12:13PM 33.0256 -110.1014 281° West 488 562 32,000  Level Albuquerque Center
12:14PM 33.0531 -110.2569 282° West 483 556 32,000  Level Albuquerque Center
12:15PM 33.0775 -110.4136 281° West 482 555 32,000  Level Albuquerque Center
12:16PM 33.1094 -110.6014 282° West 482 555 32,000  Level Albuquerque Center
12:17PM 33.1356 -110.7581 281° West 481 554 32,000  Level Albuquerque Center
12:18PM 33.1619 -110.9164 281° West 485 558 32,000  Level Albuquerque Center
12:19PM 33.1867 -111.0747 281° West 485 558 32,000  Level Albuquerque Center
12:20PM 33.2125 -111.2325 281° West 484 557 32,000  Level Albuquerque Center
12:21PM 33.2367 -111.3908 280° West 485 558 32,000  Level Albuquerque Center
12:22PM 33.2664 -111.5806 281° West 484 557 32,000  Level Albuquerque Center
12:23PM 33.2908 -111.7406 280° West 486 559 32,000  Level Albuquerque Center
12:24PM 33.3153 -111.8986 281° West 484 557 32,000  Level Albuquerque Center
12:25PM 33.3389 -112.0569 280° West 483 556 32,000  Level Albuquerque Center
12:26PM 33.3636 -112.2150 281° West 481 554 32,000  Level Albuquerque Center
12:27PM 33.3886 -112.3731 281° West 481 554 32,000  Level Albuquerque Center
12:28PM 33.4381 -112.5233 292° West 483 556 32,000  Level Albuquerque Center
12:29PM 33.4908 -112.6969 290° West 484 557 32,000  Level Albuquerque Center
12:30PM 33.5347 -112.8494 289° West 485 558 32,000  Level Albuquerque Center
12:31PM 33.5825 -112.9994 291° West 485 558 32,000  Level Albuquerque Center
12:32PM 33.6300 -113.1500 291° West 486 559 32,000  Level Albuquerque Center
12:34PM 33.6819 -113.3128 291° West 485 558 32,000  Level Albuquerque Center
12:35PM 33.7300 -113.4661 291° West 489 563 32,000  Level Albuquerque Center
12:36PM 33.7764 -113.6178 290° West 486 559 32,000  Level Albuquerque Center
12:37PM 33.8333 -113.8014 291° West 487 560 32,000  Level Albuquerque Center
12:38PM 33.8797 -113.9542 290° West 488 562 32,000  Level Albuquerque Center
12:39PM 33.9272 -114.1053 291° West 485 558 32,000  Level Albuquerque Center
12:39PM 33.9533 -114.1894 291° West 487 560 32,000  Level Los Angeles Center
12:40PM 34.0003 -114.3433 290° West 490 564 32,000  Level Los Angeles Center
12:41PM 34.0467 -114.4956 290° West 488 562 32,000  Level Los Angeles Center
12:42PM 34.0917 -114.6486 290° West 487 560 32,000  Level Los Angeles Center
12:43PM 34.1056 -114.8406 275° West 485 558 32,000  Level Los Angeles Center
12:44PM 34.1075 -114.9975 271° West 474 545 32,000  Level Los Angeles Center
12:45PM 34.1089 -115.1578 271° West 477 549 32,000  Level Los Angeles Center
12:46PM 34.1108 -115.3175 271° West 479 551 32,000  Level Los Angeles Center
12:48PM 34.1117 -115.4767 270° West 478 550 32,000  Level Los Angeles Center
12:49PM 34.1117 -115.6683 270° West 479 551 32,000  Level Los Angeles Center
12:50PM 34.1053 -115.8258 267° West 474 545 32,000  Level Los Angeles Center
12:51PM 34.0817 -115.9786 259° West 468 539 32,000 -840 Level Los Angeles Center
12:52PM 34.0581 -116.1325 260° West 469 540 30,300 -1,860 Descending Los Angeles Center
12:53PM 34.0356 -116.2839 260° West 464 534 28,200 -1,920 Descending Los Angeles Center
12:54PM 34.0136 -116.4306 260° West 452 520 26,400 -1,920 Descending Los Angeles Center
12:55PM 33.9967 -116.5967 263° West 423 487 24,300 -2,040 Descending Los Angeles Center
12:56PM 33.9856 -116.7311 264° West 410 472 22,200 -1,920 Descending Los Angeles Center
12:57PM 33.9758 -116.8611 265° West 397 457 20,400 -1,800 Descending Los Angeles Center
12:58PM 33.9667 -116.9667 264° West 376 433 19,000 -1,860 Descending Southern California TRACON
12:59PM 33.9500 -117.1000 261° West 372 428 17,200 -1,560 Descending Southern California TRACON
01:00PM 33.9500 -117.2167 270° West 368 423 15,900 -1,440 Descending Southern California TRACON
01:01PM 33.9333 -117.3333 260° West 362 417 14,300 -1,680 Descending Southern California TRACON
01:02PM 33.9667 -117.4500 289° West 354 407 12,600 -1,680 Descending Southern California TRACON
01:03PM 34.0000 -117.5667 289° West 339 390 11,000 -1,200 Descending Southern California TRACON
01:04PM 34.0167 -117.6667 281° West 342 394 10,200 -960 Descending Southern California TRACON
01:05PM 34.0000 -117.7500 256° West 282 325 9,100 -1,260 Descending Southern California TRACON
01:06PM 33.9833 -117.8500 259° West 281 323 7,700 -1,320 Descending Southern California TRACON
01:07PM 33.9833 -117.9500 270° West 276 318 6,500 -1,140 Descending Southern California TRACON
01:08PM 33.9667 -118.0333 256° West 259 298 5,500 -960 Descending Southern California TRACON
01:09PM 33.9667 -118.1167 270° West 243 280 4,600 -900 Descending Southern California TRACON